createdAt,value
2018-12-30T00:01:20.679Z,2.70
2018-12-30T00:03:51.093Z,2.60
2018-12-30T00:06:24.437Z,2.50
2018-12-30T00:08:53.662Z,2.40
2018-12-30T00:11:22.991Z,2.40
2018-12-30T00:13:52.600Z,2.40
2018-12-30T00:16:21.800Z,2.60
2018-12-30T00:18:50.738Z,2.50
2018-12-30T00:21:19.598Z,2.40
2018-12-30T00:23:48.464Z,2.40
2018-12-30T00:26:17.328Z,2.40
2018-12-30T00:28:46.281Z,2.40
2018-12-30T00:31:15.512Z,2.50
2018-12-30T00:33:44.468Z,2.50
2018-12-30T00:36:13.637Z,2.60
2018-12-30T00:38:42.598Z,2.60
2018-12-30T00:41:11.828Z,2.70
2018-12-30T00:43:40.696Z,2.70
2018-12-30T00:46:10.026Z,2.70
2018-12-30T00:48:38.973Z,2.80
2018-12-30T00:51:07.821Z,3.00
2018-12-30T00:53:36.773Z,3.00
2018-12-30T00:56:06.102Z,2.90
2018-12-30T00:58:35.354Z,2.90
2018-12-30T01:01:04.700Z,2.90
2018-12-30T01:03:33.731Z,2.90
2018-12-30T01:06:02.585Z,2.90
2018-12-30T01:08:31.900Z,2.90
2018-12-30T01:11:00.976Z,3.00
2018-12-30T01:13:29.925Z,3.00
2018-12-30T01:15:58.856Z,3.00
2018-12-30T01:18:28.187Z,3.00
2018-12-30T01:20:57.486Z,3.00
2018-12-30T01:23:27.078Z,3.10
2018-12-30T01:25:56.297Z,3.10
2018-12-30T01:28:25.221Z,3.00
2018-12-30T01:30:54.176Z,3.10
2018-12-30T01:33:23.357Z,3.00
2018-12-30T01:35:52.321Z,3.00
2018-12-30T01:38:21.534Z,3.10
2018-12-30T01:40:50.788Z,3.20
2018-12-30T01:43:19.649Z,3.30
2018-12-30T01:45:49.348Z,3.40
2018-12-30T01:48:18.617Z,3.40
2018-12-30T01:50:47.836Z,3.40
2018-12-30T01:53:16.699Z,3.40
2018-12-30T01:55:45.934Z,3.40
2018-12-30T01:58:15.063Z,3.40
2018-12-30T02:00:43.935Z,3.40
2018-12-30T02:03:12.872Z,3.40
2018-12-30T02:05:41.746Z,3.40
2018-12-30T02:08:10.617Z,3.40
2018-12-30T02:10:39.569Z,3.50
2018-12-30T02:13:08.887Z,3.40
2018-12-30T02:15:38.093Z,3.50
2018-12-30T02:18:07.284Z,3.40
2018-12-30T02:20:36.149Z,3.30
2018-12-30T02:23:05.004Z,3.40
2018-12-30T02:25:34.166Z,3.50
2018-12-30T02:28:03.472Z,3.20
2018-12-30T02:30:32.343Z,3.20
2018-12-30T02:33:01.878Z,3.00
2018-12-30T02:35:31.063Z,3.00
2018-12-30T02:38:00.369Z,3.10
2018-12-30T02:40:29.775Z,3.10
2018-12-30T02:42:58.629Z,2.90
2018-12-30T02:45:27.500Z,2.90
2018-12-30T02:47:56.365Z,2.90
2018-12-30T02:50:25.393Z,2.90
2018-12-30T02:52:54.317Z,2.80
2018-12-30T02:55:23.201Z,2.90
2018-12-30T02:57:52.351Z,3.20
2018-12-30T03:00:21.608Z,3.10
2018-12-30T03:02:50.619Z,3.30
2018-12-30T03:05:19.966Z,3.30
2018-12-30T03:07:48.911Z,3.20
2018-12-30T03:10:17.923Z,3.20
2018-12-30T03:12:47.095Z,3.20
2018-12-30T03:15:15.955Z,3.20
2018-12-30T03:17:45.233Z,3.30
2018-12-30T03:20:14.478Z,3.30
2018-12-30T03:22:43.353Z,3.40
2018-12-30T03:25:12.291Z,3.30
2018-12-30T03:27:41.561Z,3.40
2018-12-30T03:30:10.490Z,3.50
2018-12-30T03:32:39.371Z,3.50
2018-12-30T03:35:08.376Z,3.60
2018-12-30T03:37:37.313Z,3.60
2018-12-30T03:40:07.105Z,3.60
2018-12-30T03:42:36.334Z,3.70
2018-12-30T03:45:05.594Z,3.80
2018-12-30T03:47:34.538Z,3.90
2018-12-30T03:50:03.828Z,3.90
2018-12-30T03:52:33.099Z,4.00
2018-12-30T03:55:01.945Z,4.00
2018-12-30T03:57:30.815Z,4.00
2018-12-30T03:59:59.749Z,4.00
2018-12-30T04:02:28.622Z,4.00
2018-12-30T04:04:58.099Z,4.00
2018-12-30T04:07:27.061Z,4.10
2018-12-30T04:09:55.995Z,4.10
2018-12-30T04:12:24.860Z,4.20
2018-12-30T04:14:54.004Z,4.10
2018-12-30T04:17:22.889Z,4.10
2018-12-30T04:19:51.746Z,4.10
2018-12-30T04:22:20.956Z,4.00
2018-12-30T04:24:49.817Z,4.10
2018-12-30T04:27:18.684Z,4.30
2018-12-30T04:29:47.544Z,4.20
2018-12-30T04:32:16.416Z,4.10
2018-12-30T04:34:45.351Z,4.00
2018-12-30T04:37:14.223Z,4.00
2018-12-30T04:39:43.174Z,4.00
2018-12-30T04:42:12.028Z,4.00
2018-12-30T04:44:41.036Z,4.00
2018-12-30T04:47:10.402Z,4.00
2018-12-30T04:49:39.570Z,4.10
2018-12-30T04:52:08.441Z,4.10
2018-12-30T04:54:37.377Z,4.10
2018-12-30T04:57:06.323Z,4.10
2018-12-30T04:59:35.177Z,4.10
2018-12-30T05:02:04.176Z,4.10
2018-12-30T05:04:33.737Z,4.00
2018-12-30T05:07:02.933Z,4.00
2018-12-30T05:09:32.154Z,3.90
2018-12-30T05:12:01.013Z,3.90
2018-12-30T05:14:29.880Z,3.90
2018-12-30T05:16:59.117Z,3.90
2018-12-30T05:19:27.985Z,3.90
2018-12-30T05:21:56.841Z,3.90
2018-12-30T05:24:26.031Z,3.90
2018-12-30T05:26:55.189Z,3.90
2018-12-30T05:29:24.132Z,3.90
2018-12-30T05:31:53.324Z,3.80
2018-12-30T05:34:22.464Z,3.80
2018-12-30T05:36:51.569Z,3.90
2018-12-30T05:39:20.454Z,3.80
2018-12-30T05:41:49.384Z,3.80
2018-12-30T05:44:18.249Z,4.00
2018-12-30T05:46:47.105Z,4.00
2018-12-30T05:49:15.977Z,4.00
2018-12-30T05:51:45.122Z,3.90
2018-12-30T05:54:14.745Z,4.00
2018-12-30T05:56:43.684Z,4.00
2018-12-30T05:59:12.771Z,3.90
2018-12-30T06:01:41.624Z,4.00
2018-12-30T06:04:10.569Z,4.00
2018-12-30T06:06:39.425Z,3.90
2018-12-30T06:09:08.691Z,4.10
2018-12-30T06:11:37.893Z,4.40
2018-12-30T06:14:06.833Z,4.50
2018-12-30T06:16:35.684Z,4.40
2018-12-30T06:19:05.072Z,4.30
2018-12-30T06:21:34.007Z,4.30
2018-12-30T06:24:02.869Z,4.20
2018-12-30T06:26:31.718Z,4.20
2018-12-30T06:29:00.885Z,4.20
2018-12-30T06:31:29.740Z,4.10
2018-12-30T06:33:58.689Z,4.20
2018-12-30T06:36:27.816Z,4.10
2018-12-30T06:38:56.685Z,4.10
2018-12-30T06:41:25.915Z,4.00
2018-12-30T06:43:54.791Z,4.20
2018-12-30T06:46:24.041Z,4.20
2018-12-30T06:48:52.908Z,4.10
2018-12-30T06:51:22.097Z,4.10
2018-12-30T06:53:51.230Z,4.10
2018-12-30T06:56:20.485Z,4.20
2018-12-30T06:58:49.628Z,4.10
2018-12-30T07:01:18.554Z,4.10
2018-12-30T07:03:47.867Z,4.10
2018-12-30T07:06:16.700Z,4.10
2018-12-30T07:08:45.965Z,4.10
2018-12-30T07:11:15.161Z,4.10
2018-12-30T07:13:44.664Z,4.10
2018-12-30T07:16:13.797Z,4.10
2018-12-30T07:18:42.964Z,4.30
2018-12-30T07:21:12.158Z,4.20
2018-12-30T07:23:41.694Z,4.20
2018-12-30T07:26:10.965Z,4.20
2018-12-30T07:28:40.165Z,4.10
2018-12-30T07:31:09.017Z,4.10
2018-12-30T07:33:37.965Z,4.10
2018-12-30T07:36:07.245Z,4.20
2018-12-30T07:38:36.124Z,4.20
2018-12-30T07:41:05.100Z,4.10
2018-12-30T07:43:34.352Z,4.10
2018-12-30T07:46:03.545Z,4.10
2018-12-30T07:48:32.480Z,4.10
2018-12-30T07:51:01.340Z,4.10
2018-12-30T07:53:30.209Z,4.10
2018-12-30T07:55:59.403Z,4.10
2018-12-30T07:58:28.606Z,4.00
2018-12-30T08:00:57.461Z,4.00
2018-12-30T08:03:26.684Z,4.10
2018-12-30T08:05:55.884Z,4.00
2018-12-30T08:08:25.082Z,4.00
2018-12-30T08:10:54.280Z,4.00
2018-12-30T08:13:23.231Z,4.00
2018-12-30T08:15:52.093Z,4.10
2018-12-30T08:18:20.964Z,4.20
2018-12-30T08:20:49.986Z,4.30
2018-12-30T08:23:21.685Z,4.20
2018-12-30T08:25:49.778Z,4.30
2018-12-30T08:28:24.988Z,4.40
2018-12-30T08:30:49.220Z,4.40
2018-12-30T08:33:18.167Z,4.30
2018-12-30T08:35:47.030Z,4.30
2018-12-30T08:38:15.889Z,4.40
2018-12-30T08:40:44.781Z,4.30
2018-12-30T08:43:13.717Z,4.20
2018-12-30T08:45:42.652Z,4.30
2018-12-30T08:48:11.510Z,4.20
2018-12-30T08:50:40.390Z,4.20
2018-12-30T08:53:09.312Z,4.20
2018-12-30T08:55:38.205Z,4.30
2018-12-30T08:58:07.060Z,4.30
2018-12-30T09:00:36.352Z,4.30
2018-12-30T09:03:05.229Z,4.30
2018-12-30T09:05:34.096Z,4.30
2018-12-30T09:08:03.024Z,4.40
2018-12-30T09:10:32.177Z,4.60
2018-12-30T09:13:01.372Z,4.40
2018-12-30T09:15:30.574Z,4.40
2018-12-30T09:17:59.505Z,4.50
2018-12-30T09:20:28.441Z,4.60
2018-12-30T09:22:57.304Z,4.60
2018-12-30T09:25:26.245Z,4.60
2018-12-30T09:27:55.553Z,4.60
2018-12-30T09:30:24.420Z,4.60
2018-12-30T09:32:53.272Z,4.70
2018-12-30T09:35:22.222Z,4.70
2018-12-30T09:37:51.515Z,4.80
2018-12-30T09:40:20.835Z,5.00
2018-12-30T09:42:49.690Z,5.10
2018-12-30T09:45:18.557Z,5.10
2018-12-30T09:47:47.695Z,5.10
2018-12-30T09:50:16.713Z,5.20
2018-12-30T09:52:45.887Z,5.30
2018-12-30T09:55:14.762Z,5.20
2018-12-30T09:57:43.615Z,5.20
2018-12-30T10:00:12.877Z,5.10
2018-12-30T10:02:41.731Z,5.20
2018-12-30T10:05:10.950Z,5.30
2018-12-30T10:07:39.809Z,5.30
2018-12-30T10:10:08.831Z,5.30
2018-12-30T10:12:37.683Z,5.30
2018-12-30T10:15:09.824Z,5.20
2018-12-30T10:17:37.573Z,5.20
2018-12-30T10:20:07.460Z,5.20
2018-12-30T10:22:36.496Z,5.20
2018-12-30T10:25:05.785Z,5.30
2018-12-30T10:27:34.797Z,5.50
2018-12-30T10:30:04.952Z,5.60
2018-12-30T10:32:34.118Z,5.60
2018-12-30T10:35:03.058Z,5.60
2018-12-30T10:37:31.937Z,5.60
2018-12-30T10:40:01.160Z,5.60
2018-12-30T10:42:30.026Z,5.50
2018-12-30T10:44:58.872Z,5.40
2018-12-30T10:47:28.138Z,5.50
2018-12-30T10:49:57.645Z,5.50
2018-12-30T10:52:26.514Z,5.50
2018-12-30T10:54:55.439Z,5.50
2018-12-30T10:57:24.461Z,5.40
2018-12-30T10:59:53.648Z,5.40
2018-12-30T11:02:22.590Z,5.40
2018-12-30T11:04:51.441Z,5.50
2018-12-30T11:07:20.600Z,5.50
2018-12-30T11:09:49.798Z,5.60
2018-12-30T11:12:18.664Z,5.60
2018-12-30T11:14:47.588Z,5.60
2018-12-30T11:17:16.613Z,5.70
2018-12-30T11:19:45.879Z,5.90
2018-12-30T11:22:14.974Z,5.90
2018-12-30T11:24:43.955Z,5.90
2018-12-30T11:27:13.156Z,5.80
2018-12-30T11:29:42.084Z,5.80
2018-12-30T11:32:11.176Z,5.80
2018-12-30T11:34:40.552Z,5.80
2018-12-30T11:37:09.971Z,5.80
2018-12-30T11:39:39.256Z,5.80
2018-12-30T11:42:08.464Z,5.70
2018-12-30T11:44:37.468Z,5.90
2018-12-30T11:47:06.491Z,5.90
2018-12-30T11:49:35.361Z,5.90
2018-12-30T11:52:04.304Z,6.00
2018-12-30T11:54:33.452Z,5.90
2018-12-30T11:57:02.326Z,6.10
2018-12-30T11:59:31.267Z,6.00
2018-12-30T12:02:00.214Z,6.00
2018-12-30T12:04:29.139Z,6.00
2018-12-30T12:06:58.374Z,5.90
2018-12-30T12:09:27.220Z,5.90
2018-12-30T12:11:56.177Z,6.00
2018-12-30T12:14:25.032Z,6.00
2018-12-30T12:16:53.995Z,5.90
2018-12-30T12:19:23.261Z,5.80
2018-12-30T12:21:52.193Z,5.80
2018-12-30T12:24:24.565Z,5.90
2018-12-30T12:26:51.737Z,5.90
2018-12-30T12:29:20.863Z,6.00
2018-12-30T12:31:49.728Z,6.00
2018-12-30T12:34:18.953Z,6.10
2018-12-30T12:36:47.946Z,6.10
2018-12-30T12:39:17.164Z,6.10
2018-12-30T12:41:46.043Z,6.10
2018-12-30T12:44:15.051Z,6.30
2018-12-30T12:46:43.997Z,6.40
2018-12-30T12:49:12.993Z,6.40
2018-12-30T12:51:42.575Z,6.40
2018-12-30T12:54:11.925Z,6.50
2018-12-30T12:56:41.087Z,6.40
2018-12-30T12:59:09.950Z,6.50
2018-12-30T13:01:39.343Z,6.50
2018-12-30T13:04:08.356Z,6.50
2018-12-30T13:06:37.209Z,6.40
2018-12-30T13:09:07.188Z,6.40
2018-12-30T13:11:36.518Z,6.40
2018-12-30T13:14:05.456Z,6.40
2018-12-30T13:16:34.705Z,6.60
2018-12-30T13:19:03.648Z,6.60
2018-12-30T13:21:32.837Z,6.60
2018-12-30T13:24:01.781Z,6.50
2018-12-30T13:26:30.644Z,6.40
2018-12-30T13:28:59.847Z,6.30
2018-12-30T13:31:28.797Z,6.40
2018-12-30T13:33:57.972Z,6.30
2018-12-30T13:36:27.273Z,6.40
2018-12-30T13:38:56.468Z,6.30
2018-12-30T13:41:25.765Z,6.20
2018-12-30T13:43:54.640Z,6.10
2018-12-30T13:46:23.508Z,6.10
2018-12-30T13:48:52.445Z,6.00
2018-12-30T13:51:21.464Z,6.20
2018-12-30T13:53:50.954Z,6.10
2018-12-30T13:56:20.245Z,6.00
2018-12-30T13:58:49.280Z,6.10
2018-12-30T14:01:18.438Z,6.20
2018-12-30T14:03:47.469Z,6.10
2018-12-30T14:06:16.726Z,6.00
2018-12-30T14:08:45.597Z,6.00
2018-12-30T14:11:15.121Z,6.00
2018-12-30T14:13:44.325Z,5.90
2018-12-30T14:16:13.196Z,5.90
2018-12-30T14:18:42.128Z,5.80
2018-12-30T14:21:10.985Z,5.90
2018-12-30T14:23:39.961Z,5.90
2018-12-30T14:26:08.880Z,5.90
2018-12-30T14:28:37.752Z,5.80
2018-12-30T14:31:06.677Z,5.80
2018-12-30T14:33:35.909Z,5.90
2018-12-30T14:36:05.156Z,5.80
2018-12-30T14:38:34.035Z,5.80
2018-12-30T14:41:03.002Z,5.90
2018-12-30T14:43:32.177Z,5.90
2018-12-30T14:46:01.109Z,5.80
2018-12-30T14:48:29.972Z,5.70
2018-12-30T14:50:59.200Z,5.70
2018-12-30T14:53:28.225Z,5.60
2018-12-30T14:55:57.177Z,5.60
2018-12-30T14:58:26.176Z,5.50
2018-12-30T15:00:56.229Z,5.50
2018-12-30T15:03:25.140Z,5.70
2018-12-30T15:05:54.924Z,5.70
2018-12-30T15:08:23.836Z,5.70
2018-12-30T15:10:53.073Z,5.70
2018-12-30T15:13:22.003Z,5.80
2018-12-30T15:15:51.705Z,5.70
2018-12-30T15:18:20.571Z,5.70
2018-12-30T15:20:49.454Z,5.80
2018-12-30T15:23:18.638Z,5.90
2018-12-30T15:25:47.918Z,5.80
2018-12-30T15:28:16.846Z,5.80
2018-12-30T15:30:45.789Z,5.60
2018-12-30T15:33:14.733Z,5.50
2018-12-30T15:35:43.865Z,5.50
2018-12-30T15:38:12.729Z,5.40
2018-12-30T15:40:41.685Z,5.40
2018-12-30T15:43:10.540Z,5.40
2018-12-30T15:45:39.692Z,5.40
2018-12-30T15:48:08.634Z,5.50
2018-12-30T15:50:37.885Z,5.50
2018-12-30T15:53:06.892Z,5.50
2018-12-30T15:55:35.844Z,5.60
2018-12-30T15:58:04.865Z,5.50
2018-12-30T16:00:33.753Z,5.50
2018-12-30T16:03:02.694Z,5.40
2018-12-30T16:05:31.563Z,5.40
2018-12-30T16:08:00.412Z,5.30
2018-12-30T16:10:29.633Z,5.20
2018-12-30T16:12:58.565Z,5.20
2018-12-30T16:15:27.524Z,5.20
2018-12-30T16:17:56.387Z,5.10
2018-12-30T16:20:25.337Z,5.10
2018-12-30T16:22:54.196Z,5.10
2018-12-30T16:25:27.181Z,5.10
2018-12-30T16:27:54.097Z,5.00
2018-12-30T16:30:22.989Z,5.00
2018-12-30T16:32:51.931Z,5.00
2018-12-30T16:35:21.181Z,5.00
2018-12-30T16:37:50.059Z,5.00
2018-12-30T16:40:19.008Z,4.90
2018-12-30T16:42:48.184Z,4.80
2018-12-30T16:45:17.118Z,4.70
2018-12-30T16:47:46.144Z,4.70
2018-12-30T16:50:15.414Z,4.70
2018-12-30T16:52:44.301Z,4.60
2018-12-30T16:55:13.237Z,4.60
2018-12-30T16:57:42.267Z,4.70
2018-12-30T17:00:13.598Z,4.70
2018-12-30T17:02:42.869Z,4.90
2018-12-30T17:05:11.890Z,4.80
2018-12-30T17:07:40.778Z,4.60
2018-12-30T17:10:10.276Z,4.60
2018-12-30T17:12:39.548Z,4.70
2018-12-30T17:15:08.985Z,4.80
2018-12-30T17:17:38.233Z,5.00
2018-12-30T17:20:07.392Z,5.10
2018-12-30T17:22:36.272Z,5.00
2018-12-30T17:25:05.714Z,5.00
2018-12-30T17:27:34.807Z,4.80
2018-12-30T17:30:04.134Z,4.70
2018-12-30T17:32:33.326Z,4.80
2018-12-30T17:35:02.468Z,4.70
2018-12-30T17:37:31.617Z,4.60
2018-12-30T17:40:00.877Z,4.70
2018-12-30T17:42:29.833Z,4.90
2018-12-30T17:44:58.763Z,5.00
2018-12-30T17:47:27.637Z,5.10
2018-12-30T17:49:56.789Z,5.00
2018-12-30T17:52:25.766Z,4.80
2018-12-30T17:54:54.635Z,4.80
2018-12-30T17:57:23.521Z,4.80
2018-12-30T17:59:52.778Z,4.90
2018-12-30T18:02:21.708Z,4.80
2018-12-30T18:04:50.737Z,4.90
2018-12-30T18:07:20.348Z,4.90
2018-12-30T18:09:49.250Z,4.90
2018-12-30T18:12:18.247Z,4.80
2018-12-30T18:14:47.477Z,4.70
2018-12-30T18:17:16.942Z,4.70
2018-12-30T18:19:45.818Z,4.60
2018-12-30T18:22:14.877Z,4.50
2018-12-30T18:24:43.753Z,4.60
2018-12-30T18:27:13.331Z,4.60
2018-12-30T18:29:42.916Z,4.60
2018-12-30T18:32:11.966Z,4.60
2018-12-30T18:34:40.981Z,4.60
2018-12-30T18:37:10.245Z,4.60
2018-12-30T18:39:39.218Z,4.70
2018-12-30T18:42:08.233Z,4.80
2018-12-30T18:44:37.123Z,4.80
2018-12-30T18:47:06.060Z,4.80
2018-12-30T18:49:35.096Z,4.80
2018-12-30T18:52:04.034Z,4.80
2018-12-30T18:54:32.909Z,4.80
2018-12-30T18:57:01.781Z,4.80
2018-12-30T18:59:30.662Z,4.90
2018-12-30T19:01:59.960Z,5.00
2018-12-30T19:04:29.565Z,5.00
2018-12-30T19:06:58.425Z,5.00
2018-12-30T19:09:27.466Z,4.90
2018-12-30T19:11:56.398Z,4.80
2018-12-30T19:14:25.272Z,4.80
2018-12-30T19:16:54.829Z,5.00
2018-12-30T19:19:23.789Z,4.90
2018-12-30T19:21:52.725Z,4.90
2018-12-30T19:24:21.885Z,4.80
2018-12-30T19:26:51.160Z,5.00
2018-12-30T19:29:20.780Z,5.00
2018-12-30T19:31:49.753Z,5.00
2018-12-30T19:34:18.706Z,5.10
2018-12-30T19:36:47.577Z,5.00
2018-12-30T19:39:16.541Z,5.00
2018-12-30T19:41:45.419Z,5.00
2018-12-30T19:44:14.288Z,4.80
2018-12-30T19:46:43.157Z,4.80
2018-12-30T19:49:12.669Z,4.70
2018-12-30T19:51:41.931Z,4.80
2018-12-30T19:54:11.368Z,4.70
2018-12-30T19:56:40.568Z,4.80
2018-12-30T19:59:09.771Z,4.70
2018-12-30T20:01:39.071Z,4.70
2018-12-30T20:04:08.268Z,4.70
2018-12-30T20:06:37.198Z,4.60
2018-12-30T20:09:07.845Z,4.70
2018-12-30T20:11:36.697Z,4.70
2018-12-30T20:14:05.999Z,4.60
2018-12-30T20:16:34.926Z,4.70
2018-12-30T20:19:04.225Z,4.70
2018-12-30T20:21:33.301Z,4.70
2018-12-30T20:24:02.171Z,4.70
2018-12-30T20:26:31.126Z,5.00
2018-12-30T20:29:00.065Z,4.90
2018-12-30T20:31:28.932Z,4.90
2018-12-30T20:33:57.783Z,5.10
2018-12-30T20:36:26.664Z,5.00
2018-12-30T20:38:55.599Z,4.90
2018-12-30T20:41:24.492Z,4.90
2018-12-30T20:43:53.522Z,4.80
2018-12-30T20:46:22.397Z,4.90
2018-12-30T20:48:51.596Z,4.80
2018-12-30T20:51:20.734Z,4.80
2018-12-30T20:53:49.656Z,4.80
2018-12-30T20:56:18.532Z,4.90
2018-12-30T20:58:48.159Z,5.00
2018-12-30T21:01:18.162Z,5.00
2018-12-30T21:03:47.029Z,4.90
2018-12-30T21:06:16.122Z,4.90
2018-12-30T21:08:44.976Z,5.00
2018-12-30T21:11:14.525Z,5.00
2018-12-30T21:13:43.814Z,4.90
2018-12-30T21:16:13.380Z,5.00
2018-12-30T21:18:42.569Z,4.90
2018-12-30T21:21:11.493Z,4.90
2018-12-30T21:23:40.877Z,4.90
2018-12-30T21:26:10.070Z,4.70
2018-12-30T21:28:39.270Z,4.70
2018-12-30T21:31:08.476Z,4.70
2018-12-30T21:33:37.770Z,4.80
2018-12-30T21:36:09.860Z,4.90
2018-12-30T21:38:39.084Z,4.90
2018-12-30T21:41:11.067Z,4.80
2018-12-30T21:43:40.293Z,5.00
2018-12-30T21:46:09.174Z,5.00
2018-12-30T21:48:38.385Z,5.20
2018-12-30T21:51:07.337Z,5.10
2018-12-30T21:53:36.205Z,5.10
2018-12-30T21:56:05.644Z,5.00
2018-12-30T21:58:34.576Z,5.00
2018-12-30T22:01:03.601Z,5.00
2018-12-30T22:03:32.817Z,5.10
2018-12-30T22:06:01.766Z,5.10
2018-12-30T22:08:30.637Z,5.00
2018-12-30T22:11:01.364Z,5.00
2018-12-30T22:13:30.378Z,4.90
2018-12-30T22:15:59.372Z,4.90
2018-12-30T22:18:28.522Z,4.90
2018-12-30T22:20:57.365Z,4.90
2018-12-30T22:23:26.585Z,4.90
2018-12-30T22:25:55.461Z,4.90
2018-12-30T22:28:24.808Z,4.80
2018-12-30T22:30:53.896Z,4.70
2018-12-30T22:33:23.358Z,4.70
2018-12-30T22:35:52.947Z,4.80
2018-12-30T22:38:23.343Z,4.70
2018-12-30T22:40:52.262Z,4.90
2018-12-30T22:43:21.121Z,4.90
2018-12-30T22:45:50.060Z,5.00
2018-12-30T22:48:18.920Z,4.90
2018-12-30T22:50:47.801Z,5.00
2018-12-30T22:53:16.970Z,4.80
2018-12-30T22:55:46.238Z,4.90
2018-12-30T22:58:15.113Z,4.80
2018-12-30T23:00:59.653Z,4.80
2018-12-30T23:03:28.602Z,4.90
2018-12-30T23:05:57.482Z,5.00
2018-12-30T23:08:26.702Z,4.90
2018-12-30T23:10:55.573Z,5.00
2018-12-30T23:13:24.515Z,4.90
2018-12-30T23:15:53.465Z,4.90
2018-12-30T23:18:22.387Z,5.00
2018-12-30T23:20:51.822Z,5.00
2018-12-30T23:23:20.687Z,5.00
2018-12-30T23:25:49.545Z,4.90
2018-12-30T23:28:18.559Z,4.90
2018-12-30T23:30:47.422Z,4.90
2018-12-30T23:33:16.301Z,4.90
2018-12-30T23:35:45.240Z,4.80
2018-12-30T23:38:14.264Z,4.80
2018-12-30T23:40:43.503Z,4.70
2018-12-30T23:43:12.376Z,4.70
2018-12-30T23:45:41.769Z,4.60
2018-12-30T23:48:10.756Z,4.80
2018-12-30T23:50:39.685Z,4.80
2018-12-30T23:53:08.842Z,4.80
2018-12-30T23:55:38.061Z,4.90
2018-12-30T23:58:07.280Z,4.80
